createdAt,value
2023-02-13T00:04:01.354Z,95.13
2023-02-13T00:09:11.390Z,95.30
2023-02-13T00:14:17.798Z,95.22
2023-02-13T00:19:25.756Z,95.53
2023-02-13T00:24:32.201Z,95.17
2023-02-13T00:29:38.816Z,95.33
2023-02-13T00:34:46.821Z,95.07
2023-02-13T00:39:53.312Z,95.16
2023-02-13T00:44:59.931Z,95.31
2023-02-13T00:50:09.337Z,95.08
2023-02-13T00:55:16.715Z,94.81
2023-02-13T01:00:23.749Z,94.99
2023-02-13T01:05:32.053Z,94.92
2023-02-13T01:10:40.066Z,94.82
2023-02-13T01:15:48.940Z,94.74
2023-02-13T01:21:02.524Z,95.04
2023-02-13T01:26:11.031Z,94.74
2023-02-13T01:31:17.584Z,94.79
2023-02-13T01:36:25.675Z,94.90
2023-02-13T01:41:35.638Z,94.62
2023-02-13T01:46:45.809Z,94.63
2023-02-13T01:51:57.293Z,94.55
2023-02-13T01:57:08.588Z,94.52
2023-02-13T02:02:16.288Z,94.39
2023-02-13T02:07:28.493Z,94.36
2023-02-13T02:12:45.608Z,94.50
2023-02-13T02:17:52.182Z,94.48
2023-02-13T02:23:49.536Z,94.40
2023-02-13T02:29:39.578Z,94.23
2023-02-13T02:34:58.684Z,94.16
2023-02-13T02:40:26.693Z,94.25
2023-02-13T02:45:42.856Z,94.13
2023-02-13T02:50:59.985Z,93.91
2023-02-13T02:56:16.875Z,93.69
2023-02-13T03:01:46.890Z,94.03
2023-02-13T03:06:57.876Z,93.80
2023-02-13T03:12:25.750Z,94.00
2023-02-13T03:17:49.700Z,93.73
2023-02-13T03:23:14.398Z,93.77
2023-02-13T03:28:48.816Z,93.62
2023-02-13T03:34:01.499Z,93.76
2023-02-13T03:39:17.295Z,93.74
2023-02-13T03:44:30.770Z,93.69
2023-02-13T03:49:59.780Z,93.83
2023-02-13T03:55:31.423Z,93.64
2023-02-13T04:00:44.771Z,93.39
2023-02-13T04:05:56.596Z,93.65
2023-02-13T04:11:16.307Z,93.51
2023-02-13T04:16:31.147Z,93.63
2023-02-13T04:21:40.608Z,93.42
2023-02-13T04:26:48.926Z,93.42
2023-02-13T04:31:55.303Z,93.43
2023-02-13T04:37:03.157Z,93.46
2023-02-13T04:42:11.198Z,93.53
2023-02-13T04:47:18.076Z,93.22
2023-02-13T04:52:24.869Z,93.52
2023-02-13T04:57:33.185Z,93.30
2023-02-13T05:02:39.783Z,93.31
2023-02-13T05:07:46.186Z,93.19
2023-02-13T05:12:53.844Z,93.19
2023-02-13T05:18:00.185Z,93.06
2023-02-13T05:23:25.315Z,93.12
2023-02-13T05:28:51.651Z,93.06
2023-02-13T05:33:58.366Z,93.06
2023-02-13T05:39:05.300Z,93.11
2023-02-13T05:44:14.286Z,93.26
2023-02-13T05:49:21.429Z,92.77
2023-02-13T05:54:28.184Z,92.87
2023-02-13T05:59:35.995Z,92.82
2023-02-13T06:04:42.521Z,92.66
2023-02-13T06:09:51.334Z,92.62
2023-02-13T06:14:59.212Z,92.58
2023-02-13T06:20:09.522Z,92.46
2023-02-13T06:25:16.059Z,92.29
2023-02-13T06:30:24.988Z,92.33
2023-02-13T06:35:31.564Z,92.34
2023-02-13T06:40:38.517Z,92.42
2023-02-13T06:45:47.462Z,92.35
2023-02-13T06:50:53.957Z,92.39
2023-02-13T06:56:00.717Z,92.41
2023-02-13T07:01:08.814Z,92.29
2023-02-13T07:06:21.222Z,92.54
2023-02-13T07:11:31.931Z,92.25
2023-02-13T07:16:41.783Z,92.52
2023-02-13T07:21:48.195Z,92.53
2023-02-13T07:26:54.558Z,92.88
2023-02-13T07:32:03.696Z,93.39
2023-02-13T07:37:12.103Z,93.63
2023-02-13T07:42:18.634Z,93.79
2023-02-13T07:47:26.410Z,93.85
2023-02-13T07:52:34.466Z,93.97
2023-02-13T07:57:41.271Z,93.86
2023-02-13T08:02:49.335Z,93.94
2023-02-13T08:07:55.754Z,93.70
2023-02-13T08:13:02.520Z,93.67
2023-02-13T08:18:10.148Z,93.64
2023-02-13T08:23:16.632Z,93.53
2023-02-13T08:28:23.823Z,93.35
2023-02-13T08:33:32.535Z,92.89
2023-02-13T08:43:50.912Z,92.60
2023-02-13T08:48:58.853Z,92.22
2023-02-13T08:54:05.425Z,92.31
2023-02-13T08:59:11.675Z,92.40
2023-02-13T09:04:19.885Z,92.41
2023-02-13T09:09:26.308Z,92.32
2023-02-13T09:14:33.941Z,91.91
2023-02-13T09:19:41.663Z,92.34
2023-02-13T09:24:47.994Z,92.53
2023-02-13T09:29:54.487Z,92.46
2023-02-13T09:35:02.388Z,92.75
2023-02-13T09:40:26.533Z,92.68
2023-02-13T09:45:32.949Z,92.78
2023-02-13T09:50:41.376Z,92.79
2023-02-13T09:55:54.059Z,92.97
2023-02-13T10:01:03.708Z,93.09
2023-02-13T10:06:21.590Z,93.11
2023-02-13T10:12:10.180Z,92.86
2023-02-13T10:17:23.706Z,93.40
2023-02-13T10:22:36.242Z,93.19
2023-02-13T10:27:48.657Z,93.47
2023-02-13T10:33:21.876Z,93.34
2023-02-13T10:38:33.419Z,93.38
2023-02-13T10:43:53.998Z,93.25
2023-02-13T10:49:38.988Z,93.58
2023-02-13T10:55:08.907Z,93.19
2023-02-13T11:00:26.871Z,93.31
2023-02-13T11:05:39.335Z,93.10
2023-02-13T11:10:49.356Z,92.75
2023-02-13T11:16:06.132Z,92.65
2023-02-13T11:21:18.642Z,92.40
2023-02-13T11:26:34.507Z,92.49
2023-02-13T11:31:41.034Z,92.46
2023-02-13T11:36:47.676Z,92.20
2023-02-13T11:41:55.757Z,91.68
2023-02-13T11:47:04.499Z,91.89
2023-02-13T11:52:26.552Z,91.71
2023-02-13T11:57:36.959Z,91.47
2023-02-13T12:02:51.070Z,91.56
2023-02-13T12:08:02.975Z,91.15
2023-02-13T12:13:23.539Z,90.93
2023-02-13T12:18:36.950Z,90.52
2023-02-13T12:23:51.432Z,90.22
2023-02-13T12:29:36.340Z,89.58
2023-02-13T12:35:32.120Z,89.04
2023-02-13T12:41:05.617Z,88.94
2023-02-13T12:46:22.213Z,88.85
2023-02-13T12:51:43.418Z,88.55
2023-02-13T12:57:20.272Z,88.41
2023-02-13T13:03:03.321Z,88.15
2023-02-13T13:08:31.150Z,88.35
2023-02-13T13:13:51.563Z,88.25
2023-02-13T13:19:13.126Z,87.98
2023-02-13T13:24:52.181Z,87.71
2023-02-13T13:30:01.134Z,87.75
2023-02-13T13:35:16.101Z,87.60
2023-02-13T13:40:39.757Z,87.61
2023-02-13T13:45:54.000Z,87.51
2023-02-13T13:51:02.584Z,87.31
2023-02-13T13:56:10.213Z,87.31
2023-02-13T14:01:30.981Z,87.22
2023-02-13T14:07:23.597Z,87.29
2023-02-13T14:12:50.237Z,87.01
2023-02-13T14:17:57.840Z,87.12
2023-02-13T14:23:37.322Z,86.87
2023-02-13T14:28:56.756Z,87.03
2023-02-13T14:34:09.076Z,87.24
2023-02-13T14:39:28.542Z,87.00
2023-02-13T14:44:44.931Z,86.57
2023-02-13T14:49:53.374Z,87.07
2023-02-13T14:55:04.869Z,86.99
2023-02-13T15:00:29.357Z,86.87
2023-02-13T15:05:37.907Z,86.82
2023-02-13T15:10:50.414Z,86.86
2023-02-13T15:16:00.750Z,86.96
2023-02-13T15:21:07.988Z,86.80
2023-02-13T15:26:24.409Z,86.50
2023-02-13T15:31:35.240Z,86.63
2023-02-13T15:36:44.008Z,86.88
2023-02-13T15:41:56.184Z,86.73
2023-02-13T15:47:09.392Z,86.76
2023-02-13T15:52:22.626Z,86.35
2023-02-13T15:57:31.783Z,86.26
2023-02-13T16:02:48.187Z,86.61
2023-02-13T16:08:00.150Z,86.24
2023-02-13T16:13:18.891Z,86.21
2023-02-13T16:18:28.378Z,85.83
2023-02-13T16:23:36.008Z,85.65
2023-02-13T16:28:50.072Z,85.44
2023-02-13T16:33:58.244Z,84.70
2023-02-13T16:39:21.722Z,84.33
2023-02-13T16:44:40.724Z,84.25
2023-02-13T16:49:56.810Z,84.34
2023-02-13T16:55:07.578Z,84.39
2023-02-13T17:00:29.369Z,84.03
2023-02-13T17:05:37.549Z,83.99
2023-02-13T17:11:03.280Z,84.25
2023-02-13T17:16:14.806Z,84.26
2023-02-13T17:21:26.606Z,84.53
2023-02-13T17:26:36.713Z,84.33
2023-02-13T17:31:50.275Z,84.26
2023-02-13T17:37:01.012Z,84.52
2023-02-13T17:42:13.936Z,84.33
2023-02-13T17:47:24.816Z,84.31
2023-02-13T17:52:36.330Z,84.81
2023-02-13T17:57:44.594Z,84.57
2023-02-13T18:02:54.915Z,84.60
2023-02-13T18:08:05.217Z,84.74
2023-02-13T18:13:15.408Z,84.70
2023-02-13T18:18:27.098Z,84.88
2023-02-13T18:23:39.030Z,84.71
2023-02-13T18:28:47.437Z,84.68
2023-02-13T18:33:58.781Z,84.50
2023-02-13T18:39:12.443Z,84.75
2023-02-13T18:44:28.423Z,84.74
2023-02-13T18:49:40.456Z,84.69
2023-02-13T18:54:49.176Z,84.27
2023-02-13T18:59:58.584Z,84.48
2023-02-13T19:05:13.805Z,84.14
2023-02-13T19:10:24.059Z,84.08
2023-02-13T19:15:32.760Z,83.79
2023-02-13T19:20:44.836Z,83.57
2023-02-13T19:25:59.762Z,83.46
2023-02-13T19:31:15.151Z,83.27
2023-02-13T19:36:29.600Z,83.30
2023-02-13T19:41:41.462Z,83.40
2023-02-13T19:46:56.055Z,83.32
2023-02-13T19:52:07.939Z,83.46
2023-02-13T19:57:19.156Z,83.56
2023-02-13T20:02:29.459Z,83.64
2023-02-13T20:07:48.549Z,83.79
2023-02-13T20:13:01.563Z,83.79
2023-02-13T20:18:11.406Z,83.90
2023-02-13T20:23:24.402Z,83.86
2023-02-13T20:28:35.417Z,83.86
2023-02-13T20:33:45.773Z,84.10
2023-02-13T20:39:01.059Z,84.23
2023-02-13T20:44:15.373Z,84.08
2023-02-13T20:49:27.013Z,84.01
2023-02-13T20:54:39.554Z,84.13
2023-02-13T20:59:49.853Z,84.25
2023-02-13T21:04:59.416Z,84.17
2023-02-13T21:10:12.846Z,84.28
2023-02-13T21:15:25.170Z,84.42
2023-02-13T21:20:35.122Z,84.20
2023-02-13T21:25:47.243Z,83.81
2023-02-13T21:30:58.410Z,84.08
2023-02-13T21:36:10.408Z,84.36
2023-02-13T21:41:20.431Z,84.42
2023-02-13T21:46:31.025Z,84.32
2023-02-13T21:51:38.912Z,84.39
2023-02-13T21:56:47.640Z,84.58
2023-02-13T22:01:55.248Z,84.13
2023-02-13T22:07:02.238Z,84.47
2023-02-13T22:12:10.581Z,84.49
2023-02-13T22:17:17.237Z,84.45
2023-02-13T22:22:25.817Z,84.51
2023-02-13T22:27:34.132Z,84.61
2023-02-13T22:32:41.903Z,84.44
2023-02-13T22:37:48.268Z,84.63
2023-02-13T22:42:56.331Z,84.58
2023-02-13T22:48:03.035Z,84.65
2023-02-13T22:53:09.663Z,84.63
2023-02-13T22:58:17.879Z,84.65
2023-02-13T23:03:25.144Z,84.58
2023-02-13T23:08:32.494Z,84.68
2023-02-13T23:13:40.474Z,84.86
2023-02-13T23:18:51.595Z,84.86
2023-02-13T23:23:58.010Z,84.72
2023-02-13T23:29:06.340Z,85.03
2023-02-13T23:34:13.139Z,85.04
2023-02-13T23:39:21.476Z,84.60
2023-02-13T23:44:29.464Z,84.79
2023-02-13T23:49:36.025Z,85.05
2023-02-13T23:54:43.144Z,85.03
2023-02-13T23:59:52.707Z,84.79
